sensor_id;sensor_type;location;lat;lon;timestamp;P1;durP1;ratioP1;P2;durP2;ratioP2
739;SDS011;354;42.694;23.336;2024-01-11T00:00:01;41.67;;;28.83;;
739;SDS011;354;42.694;23.336;2024-01-11T00:02:27;44.80;;;29.40;;
739;SDS011;354;42.694;23.336;2024-01-11T00:04:52;41.93;;;28.77;;
739;SDS011;354;42.694;23.336;2024-01-11T00:07:18;44.65;;;28.45;;
739;SDS011;354;42.694;23.336;2024-01-11T00:09:43;47.10;;;29.60;;
739;SDS011;354;42.694;23.336;2024-01-11T00:12:09;44.27;;;29.80;;
739;SDS011;354;42.694;23.336;2024-01-11T00:14:34;42.53;;;28.50;;
739;SDS011;354;42.694;23.336;2024-01-11T00:17:00;41.43;;;28.60;;
739;SDS011;354;42.694;23.336;2024-01-11T00:19:25;43.50;;;27.97;;
739;SDS011;354;42.694;23.336;2024-01-11T00:21:50;37.33;;;25.37;;
739;SDS011;354;42.694;23.336;2024-01-11T00:24:16;36.47;;;23.73;;
739;SDS011;354;42.694;23.336;2024-01-11T00:26:41;33.97;;;22.87;;
739;SDS011;354;42.694;23.336;2024-01-11T00:29:06;28.57;;;20.10;;
739;SDS011;354;42.694;23.336;2024-01-11T00:31:32;24.93;;;19.03;;
739;SDS011;354;42.694;23.336;2024-01-11T00:33:57;25.57;;;20.07;;
739;SDS011;354;42.694;23.336;2024-01-11T00:36:22;29.27;;;20.80;;
739;SDS011;354;42.694;23.336;2024-01-11T00:38:47;27.60;;;18.50;;
739;SDS011;354;42.694;23.336;2024-01-11T00:41:13;29.17;;;20.30;;
739;SDS011;354;42.694;23.336;2024-01-11T00:43:38;31.87;;;20.07;;
739;SDS011;354;42.694;23.336;2024-01-11T00:46:03;31.90;;;21.70;;
739;SDS011;354;42.694;23.336;2024-01-11T00:48:28;35.60;;;23.17;;
739;SDS011;354;42.694;23.336;2024-01-11T00:50:54;32.80;;;22.10;;
739;SDS011;354;42.694;23.336;2024-01-11T00:53:19;34.57;;;21.03;;
739;SDS011;354;42.694;23.336;2024-01-11T00:55:44;32.60;;;21.33;;
739;SDS011;354;42.694;23.336;2024-01-11T00:58:09;32.40;;;20.63;;
739;SDS011;354;42.694;23.336;2024-01-11T01:00:34;33.17;;;21.23;;
739;SDS011;354;42.694;23.336;2024-01-11T01:03:00;24.33;;;20.00;;
739;SDS011;354;42.694;23.336;2024-01-11T01:05:25;34.23;;;20.60;;
739;SDS011;354;42.694;23.336;2024-01-11T01:07:50;28.73;;;20.73;;
739;SDS011;354;42.694;23.336;2024-01-11T01:10:15;29.10;;;21.70;;
739;SDS011;354;42.694;23.336;2024-01-11T01:12:41;29.57;;;21.33;;
739;SDS011;354;42.694;23.336;2024-01-11T01:15:06;30.13;;;22.60;;
739;SDS011;354;42.694;23.336;2024-01-11T01:17:31;27.67;;;22.70;;
739;SDS011;354;42.694;23.336;2024-01-11T01:19:57;27.87;;;20.70;;
739;SDS011;354;42.694;23.336;2024-01-11T01:22:22;27.57;;;20.73;;
739;SDS011;354;42.694;23.336;2024-01-11T01:24:47;29.20;;;21.00;;
739;SDS011;354;42.694;23.336;2024-01-11T01:27:13;27.20;;;18.77;;
739;SDS011;354;42.694;23.336;2024-01-11T01:29:38;30.00;;;21.17;;
739;SDS011;354;42.694;23.336;2024-01-11T01:32:03;31.17;;;19.77;;
739;SDS011;354;42.694;23.336;2024-01-11T01:34:29;29.40;;;21.17;;
739;SDS011;354;42.694;23.336;2024-01-11T01:36:54;31.60;;;22.13;;
739;SDS011;354;42.694;23.336;2024-01-11T01:39:19;37.03;;;20.67;;
739;SDS011;354;42.694;23.336;2024-01-11T01:41:44;43.73;;;24.23;;
739;SDS011;354;42.694;23.336;2024-01-11T01:44:10;45.57;;;27.43;;
739;SDS011;354;42.694;23.336;2024-01-11T01:46:35;47.60;;;26.73;;
739;SDS011;354;42.694;23.336;2024-01-11T01:49:00;35.87;;;23.77;;
739;SDS011;354;42.694;23.336;2024-01-11T01:51:26;36.93;;;22.30;;
739;SDS011;354;42.694;23.336;2024-01-11T01:53:52;28.87;;;20.27;;
739;SDS011;354;42.694;23.336;2024-01-11T01:56:18;29.77;;;20.07;;
739;SDS011;354;42.694;23.336;2024-01-11T01:58:44;19.97;;;14.80;;
739;SDS011;354;42.694;23.336;2024-01-11T02:01:09;25.90;;;18.97;;
739;SDS011;354;42.694;23.336;2024-01-11T02:03:35;20.33;;;14.63;;
739;SDS011;354;42.694;23.336;2024-01-11T02:06:00;15.83;;;13.87;;
739;SDS011;354;42.694;23.336;2024-01-11T02:08:26;13.57;;;10.80;;
739;SDS011;354;42.694;23.336;2024-01-11T02:10:52;18.50;;;14.37;;
739;SDS011;354;42.694;23.336;2024-01-11T02:13:17;14.70;;;13.17;;
739;SDS011;354;42.694;23.336;2024-01-11T02:15:44;15.50;;;12.33;;
739;SDS011;354;42.694;23.336;2024-01-11T02:18:09;20.33;;;15.80;;
739;SDS011;354;42.694;23.336;2024-01-11T02:20:35;19.43;;;15.40;;
739;SDS011;354;42.694;23.336;2024-01-11T02:23:01;19.27;;;15.97;;
739;SDS011;354;42.694;23.336;2024-01-11T02:25:28;19.63;;;17.30;;
739;SDS011;354;42.694;23.336;2024-01-11T02:27:53;25.90;;;17.83;;
739;SDS011;354;42.694;23.336;2024-01-11T02:30:19;24.10;;;18.27;;
739;SDS011;354;42.694;23.336;2024-01-11T02:32:44;22.13;;;17.37;;
739;SDS011;354;42.694;23.336;2024-01-11T02:35:16;17.30;;;15.40;;
739;SDS011;354;42.694;23.336;2024-01-11T02:37:41;32.13;;;17.17;;
739;SDS011;354;42.694;23.336;2024-01-11T02:40:07;21.33;;;16.20;;
739;SDS011;354;42.694;23.336;2024-01-11T02:42:32;22.00;;;14.90;;
739;SDS011;354;42.694;23.336;2024-01-11T02:44:58;20.47;;;14.93;;
739;SDS011;354;42.694;23.336;2024-01-11T02:47:23;25.53;;;17.83;;
739;SDS011;354;42.694;23.336;2024-01-11T02:49:48;19.33;;;15.50;;
739;SDS011;354;42.694;23.336;2024-01-11T02:52:13;26.23;;;17.40;;
739;SDS011;354;42.694;23.336;2024-01-11T02:54:38;23.07;;;15.80;;
739;SDS011;354;42.694;23.336;2024-01-11T02:57:04;26.73;;;17.77;;
739;SDS011;354;42.694;23.336;2024-01-11T02:59:29;21.53;;;16.47;;
739;SDS011;354;42.694;23.336;2024-01-11T03:01:54;24.63;;;17.33;;
739;SDS011;354;42.694;23.336;2024-01-11T03:04:19;23.73;;;17.80;;
739;SDS011;354;42.694;23.336;2024-01-11T03:06:45;24.53;;;16.80;;
739;SDS011;354;42.694;23.336;2024-01-11T03:09:10;24.83;;;19.33;;
739;SDS011;354;42.694;23.336;2024-01-11T03:11:36;23.73;;;18.50;;
739;SDS011;354;42.694;23.336;2024-01-11T03:14:02;26.57;;;20.67;;
739;SDS011;354;42.694;23.336;2024-01-11T03:16:27;31.03;;;20.40;;
739;SDS011;354;42.694;23.336;2024-01-11T03:18:53;31.23;;;18.97;;
739;SDS011;354;42.694;23.336;2024-01-11T03:21:18;30.33;;;20.80;;
739;SDS011;354;42.694;23.336;2024-01-11T03:23:43;29.70;;;20.57;;
739;SDS011;354;42.694;23.336;2024-01-11T03:26:18;30.77;;;21.40;;
739;SDS011;354;42.694;23.336;2024-01-11T03:28:43;29.27;;;19.43;;
739;SDS011;354;42.694;23.336;2024-01-11T03:31:09;36.47;;;22.37;;
739;SDS011;354;42.694;23.336;2024-01-11T03:33:34;28.20;;;20.70;;
739;SDS011;354;42.694;23.336;2024-01-11T03:36:00;34.10;;;20.40;;
739;SDS011;354;42.694;23.336;2024-01-11T03:38:25;30.97;;;21.67;;
739;SDS011;354;42.694;23.336;2024-01-11T03:40:50;28.70;;;21.83;;
739;SDS011;354;42.694;23.336;2024-01-11T03:43:18;30.90;;;23.67;;
739;SDS011;354;42.694;23.336;2024-01-11T03:45:44;31.60;;;23.10;;
739;SDS011;354;42.694;23.336;2024-01-11T03:48:09;32.00;;;22.07;;
739;SDS011;354;42.694;23.336;2024-01-11T03:50:34;30.93;;;20.60;;
739;SDS011;354;42.694;23.336;2024-01-11T03:52:59;34.87;;;22.13;;
739;SDS011;354;42.694;23.336;2024-01-11T03:55:24;32.70;;;20.63;;
739;SDS011;354;42.694;23.336;2024-01-11T03:57:50;37.63;;;22.10;;
739;SDS011;354;42.694;23.336;2024-01-11T04:00:16;38.40;;;22.47;;
739;SDS011;354;42.694;23.336;2024-01-11T04:02:41;31.57;;;23.00;;
739;SDS011;354;42.694;23.336;2024-01-11T04:05:06;30.70;;;23.63;;
739;SDS011;354;42.694;23.336;2024-01-11T04:07:32;34.00;;;24.13;;
739;SDS011;354;42.694;23.336;2024-01-11T04:09:57;29.63;;;22.77;;
739;SDS011;354;42.694;23.336;2024-01-11T04:12:22;35.03;;;25.00;;
739;SDS011;354;42.694;23.336;2024-01-11T04:14:47;29.40;;;22.00;;
739;SDS011;354;42.694;23.336;2024-01-11T04:17:13;36.20;;;25.03;;
739;SDS011;354;42.694;23.336;2024-01-11T04:19:39;36.03;;;23.53;;
739;SDS011;354;42.694;23.336;2024-01-11T04:22:04;37.70;;;22.37;;
739;SDS011;354;42.694;23.336;2024-01-11T04:24:29;30.73;;;23.00;;
739;SDS011;354;42.694;23.336;2024-01-11T04:26:54;31.60;;;23.30;;
739;SDS011;354;42.694;23.336;2024-01-11T04:29:20;26.57;;;21.37;;
739;SDS011;354;42.694;23.336;2024-01-11T04:31:45;32.97;;;24.97;;
739;SDS011;354;42.694;23.336;2024-01-11T04:34:10;30.37;;;23.07;;
739;SDS011;354;42.694;23.336;2024-01-11T04:36:37;31.87;;;24.10;;
739;SDS011;354;42.694;23.336;2024-01-11T04:39:02;35.60;;;24.47;;
739;SDS011;354;42.694;23.336;2024-01-11T04:41:27;30.07;;;22.73;;
739;SDS011;354;42.694;23.336;2024-01-11T04:43:52;30.13;;;22.67;;
739;SDS011;354;42.694;23.336;2024-01-11T04:46:18;34.90;;;22.80;;
739;SDS011;354;42.694;23.336;2024-01-11T04:48:44;25.57;;;19.07;;
739;SDS011;354;42.694;23.336;2024-01-11T04:51:10;35.97;;;23.20;;
739;SDS011;354;42.694;23.336;2024-01-11T04:53:36;31.70;;;22.93;;
739;SDS011;354;42.694;23.336;2024-01-11T04:56:02;29.43;;;21.00;;
739;SDS011;354;42.694;23.336;2024-01-11T04:58:27;41.63;;;26.50;;
739;SDS011;354;42.694;23.336;2024-01-11T05:00:53;39.07;;;24.90;;
739;SDS011;354;42.694;23.336;2024-01-11T05:03:18;41.07;;;26.83;;
739;SDS011;354;42.694;23.336;2024-01-11T05:05:43;51.43;;;29.90;;
739;SDS011;354;42.694;23.336;2024-01-11T05:08:08;51.63;;;30.90;;
739;SDS011;354;42.694;23.336;2024-01-11T05:10:35;56.17;;;34.07;;
739;SDS011;354;42.694;23.336;2024-01-11T05:13:00;49.87;;;32.97;;
739;SDS011;354;42.694;23.336;2024-01-11T05:15:25;53.10;;;30.53;;
739;SDS011;354;42.694;23.336;2024-01-11T05:17:51;52.30;;;36.43;;
739;SDS011;354;42.694;23.336;2024-01-11T05:20:16;60.33;;;35.20;;
739;SDS011;354;42.694;23.336;2024-01-11T05:22:41;49.87;;;34.27;;
739;SDS011;354;42.694;23.336;2024-01-11T05:25:06;49.33;;;33.67;;
739;SDS011;354;42.694;23.336;2024-01-11T05:27:32;53.20;;;33.27;;
739;SDS011;354;42.694;23.336;2024-01-11T05:29:57;41.97;;;30.23;;
739;SDS011;354;42.694;23.336;2024-01-11T05:32:22;44.60;;;31.00;;
739;SDS011;354;42.694;23.336;2024-01-11T05:34:47;41.47;;;27.97;;
739;SDS011;354;42.694;23.336;2024-01-11T05:37:13;41.07;;;28.13;;
739;SDS011;354;42.694;23.336;2024-01-11T05:39:38;46.63;;;31.40;;
739;SDS011;354;42.694;23.336;2024-01-11T05:42:03;44.93;;;31.30;;
739;SDS011;354;42.694;23.336;2024-01-11T05:44:28;44.47;;;27.40;;
739;SDS011;354;42.694;23.336;2024-01-11T05:46:54;48.77;;;33.10;;
739;SDS011;354;42.694;23.336;2024-01-11T05:49:19;36.97;;;28.00;;
739;SDS011;354;42.694;23.336;2024-01-11T05:51:45;47.87;;;34.30;;
739;SDS011;354;42.694;23.336;2024-01-11T05:54:10;50.03;;;31.97;;
739;SDS011;354;42.694;23.336;2024-01-11T05:56:35;51.33;;;34.97;;
739;SDS011;354;42.694;23.336;2024-01-11T05:59:00;55.83;;;39.23;;
739;SDS011;354;42.694;23.336;2024-01-11T06:01:25;47.77;;;35.07;;
739;SDS011;354;42.694;23.336;2024-01-11T06:03:51;57.27;;;46.93;;
739;SDS011;354;42.694;23.336;2024-01-11T06:06:16;65.23;;;50.60;;
739;SDS011;354;42.694;23.336;2024-01-11T06:08:41;50.17;;;43.17;;
739;SDS011;354;42.694;23.336;2024-01-11T06:11:08;50.87;;;44.70;;
739;SDS011;354;42.694;23.336;2024-01-11T06:13:33;49.57;;;43.87;;
739;SDS011;354;42.694;23.336;2024-01-11T06:15:58;50.63;;;44.07;;
739;SDS011;354;42.694;23.336;2024-01-11T06:18:24;47.27;;;42.23;;
739;SDS011;354;42.694;23.336;2024-01-11T06:20:49;60.03;;;46.60;;
739;SDS011;354;42.694;23.336;2024-01-11T06:23:14;53.87;;;46.50;;
739;SDS011;354;42.694;23.336;2024-01-11T06:25:41;44.50;;;39.73;;
739;SDS011;354;42.694;23.336;2024-01-11T06:28:07;47.17;;;42.10;;
739;SDS011;354;42.694;23.336;2024-01-11T06:30:33;52.50;;;45.13;;
739;SDS011;354;42.694;23.336;2024-01-11T06:32:58;50.60;;;41.93;;
739;SDS011;354;42.694;23.336;2024-01-11T06:35:23;52.80;;;44.63;;
739;SDS011;354;42.694;23.336;2024-01-11T06:37:49;53.50;;;39.90;;
739;SDS011;354;42.694;23.336;2024-01-11T06:40:14;51.90;;;40.07;;
739;SDS011;354;42.694;23.336;2024-01-11T06:42:39;54.53;;;41.73;;
739;SDS011;354;42.694;23.336;2024-01-11T06:45:05;50.47;;;34.13;;
739;SDS011;354;42.694;23.336;2024-01-11T06:47:30;39.87;;;31.47;;
739;SDS011;354;42.694;23.336;2024-01-11T06:49:55;46.77;;;37.17;;
739;SDS011;354;42.694;23.336;2024-01-11T06:52:21;47.70;;;37.23;;
739;SDS011;354;42.694;23.336;2024-01-11T06:54:46;51.97;;;38.77;;
739;SDS011;354;42.694;23.336;2024-01-11T06:57:11;55.67;;;41.83;;
739;SDS011;354;42.694;23.336;2024-01-11T06:59:36;46.43;;;35.30;;
739;SDS011;354;42.694;23.336;2024-01-11T07:02:02;52.03;;;40.37;;
739;SDS011;354;42.694;23.336;2024-01-11T07:04:27;52.70;;;39.23;;
739;SDS011;354;42.694;23.336;2024-01-11T07:06:53;55.37;;;37.13;;
739;SDS011;354;42.694;23.336;2024-01-11T07:09:18;38.27;;;28.27;;
739;SDS011;354;42.694;23.336;2024-01-11T07:11:43;57.63;;;43.20;;
739;SDS011;354;42.694;23.336;2024-01-11T07:14:09;61.27;;;46.73;;
739;SDS011;354;42.694;23.336;2024-01-11T07:16:34;47.97;;;37.93;;
739;SDS011;354;42.694;23.336;2024-01-11T07:19:00;60.03;;;44.70;;
739;SDS011;354;42.694;23.336;2024-01-11T07:21:25;58.83;;;42.57;;
739;SDS011;354;42.694;23.336;2024-01-11T07:23:55;51.00;;;38.30;;
739;SDS011;354;42.694;23.336;2024-01-11T07:26:20;53.73;;;37.97;;
739;SDS011;354;42.694;23.336;2024-01-11T07:28:45;41.93;;;30.67;;
739;SDS011;354;42.694;23.336;2024-01-11T07:31:10;43.63;;;32.50;;
739;SDS011;354;42.694;23.336;2024-01-11T07:33:36;33.90;;;27.03;;
739;SDS011;354;42.694;23.336;2024-01-11T07:36:01;44.97;;;34.23;;
739;SDS011;354;42.694;23.336;2024-01-11T07:38:26;38.97;;;32.07;;
739;SDS011;354;42.694;23.336;2024-01-11T07:40:52;31.27;;;27.40;;
739;SDS011;354;42.694;23.336;2024-01-11T07:43:17;41.83;;;34.40;;
739;SDS011;354;42.694;23.336;2024-01-11T07:45:42;34.57;;;26.47;;
739;SDS011;354;42.694;23.336;2024-01-11T07:48:07;26.93;;;23.77;;
739;SDS011;354;42.694;23.336;2024-01-11T07:50:33;41.60;;;32.80;;
739;SDS011;354;42.694;23.336;2024-01-11T07:52:58;49.67;;;37.23;;
739;SDS011;354;42.694;23.336;2024-01-11T07:55:24;44.27;;;31.10;;
739;SDS011;354;42.694;23.336;2024-01-11T07:57:49;46.47;;;34.13;;
739;SDS011;354;42.694;23.336;2024-01-11T08:00:15;39.00;;;32.33;;
739;SDS011;354;42.694;23.336;2024-01-11T08:02:40;38.27;;;31.87;;
739;SDS011;354;42.694;23.336;2024-01-11T08:05:06;43.33;;;33.50;;
739;SDS011;354;42.694;23.336;2024-01-11T08:07:31;55.10;;;40.87;;
739;SDS011;354;42.694;23.336;2024-01-11T08:09:56;38.90;;;31.13;;
739;SDS011;354;42.694;23.336;2024-01-11T08:12:21;40.50;;;31.43;;
739;SDS011;354;42.694;23.336;2024-01-11T08:14:47;35.77;;;30.50;;
739;SDS011;354;42.694;23.336;2024-01-11T08:17:13;44.03;;;32.40;;
739;SDS011;354;42.694;23.336;2024-01-11T08:19:39;40.47;;;31.67;;
739;SDS011;354;42.694;23.336;2024-01-11T08:22:05;45.57;;;36.93;;
739;SDS011;354;42.694;23.336;2024-01-11T08:24:30;52.67;;;37.80;;
739;SDS011;354;42.694;23.336;2024-01-11T08:26:55;50.40;;;35.87;;
739;SDS011;354;42.694;23.336;2024-01-11T08:29:20;49.07;;;35.60;;
739;SDS011;354;42.694;23.336;2024-01-11T08:31:47;51.57;;;35.40;;
739;SDS011;354;42.694;23.336;2024-01-11T08:34:12;51.77;;;38.50;;
739;SDS011;354;42.694;23.336;2024-01-11T08:36:37;47.00;;;35.67;;
739;SDS011;354;42.694;23.336;2024-01-11T08:39:06;24.87;;;19.77;;
739;SDS011;354;42.694;23.336;2024-01-11T08:41:33;44.23;;;32.03;;
739;SDS011;354;42.694;23.336;2024-01-11T08:44:00;34.33;;;24.17;;
739;SDS011;354;42.694;23.336;2024-01-11T08:46:25;45.83;;;29.10;;
739;SDS011;354;42.694;23.336;2024-01-11T08:48:51;43.23;;;32.00;;
739;SDS011;354;42.694;23.336;2024-01-11T08:51:17;41.90;;;30.00;;
739;SDS011;354;42.694;23.336;2024-01-11T08:53:42;40.10;;;32.43;;
739;SDS011;354;42.694;23.336;2024-01-11T08:56:07;42.90;;;29.53;;
739;SDS011;354;42.694;23.336;2024-01-11T08:58:32;45.77;;;31.40;;
739;SDS011;354;42.694;23.336;2024-01-11T09:00:57;43.23;;;31.17;;
739;SDS011;354;42.694;23.336;2024-01-11T09:03:23;44.43;;;31.23;;
739;SDS011;354;42.694;23.336;2024-01-11T09:05:49;43.67;;;31.77;;
739;SDS011;354;42.694;23.336;2024-01-11T09:08:14;41.00;;;32.03;;
739;SDS011;354;42.694;23.336;2024-01-11T09:10:39;44.77;;;30.60;;
739;SDS011;354;42.694;23.336;2024-01-11T09:13:06;43.37;;;29.87;;
739;SDS011;354;42.694;23.336;2024-01-11T09:15:31;51.90;;;35.10;;
739;SDS011;354;42.694;23.336;2024-01-11T09:17:58;44.67;;;32.13;;
739;SDS011;354;42.694;23.336;2024-01-11T09:20:25;44.43;;;27.73;;
739;SDS011;354;42.694;23.336;2024-01-11T09:22:50;45.73;;;32.10;;
739;SDS011;354;42.694;23.336;2024-01-11T09:25:15;45.10;;;31.50;;
739;SDS011;354;42.694;23.336;2024-01-11T09:27:40;41.60;;;32.00;;
739;SDS011;354;42.694;23.336;2024-01-11T09:30:06;42.60;;;32.97;;
739;SDS011;354;42.694;23.336;2024-01-11T09:32:31;45.43;;;34.00;;
739;SDS011;354;42.694;23.336;2024-01-11T09:34:56;45.47;;;32.53;;
739;SDS011;354;42.694;23.336;2024-01-11T09:37:22;49.40;;;34.00;;
739;SDS011;354;42.694;23.336;2024-01-11T09:39:47;42.60;;;33.03;;
739;SDS011;354;42.694;23.336;2024-01-11T09:42:12;47.47;;;34.43;;
739;SDS011;354;42.694;23.336;2024-01-11T09:44:37;45.00;;;32.07;;
739;SDS011;354;42.694;23.336;2024-01-11T09:47:06;48.63;;;35.83;;
739;SDS011;354;42.694;23.336;2024-01-11T09:49:33;46.40;;;34.17;;
739;SDS011;354;42.694;23.336;2024-01-11T09:51:58;46.30;;;35.33;;
739;SDS011;354;42.694;23.336;2024-01-11T09:54:26;44.97;;;31.57;;
739;SDS011;354;42.694;23.336;2024-01-11T09:56:51;48.70;;;34.53;;
739;SDS011;354;42.694;23.336;2024-01-11T09:59:18;48.63;;;36.13;;
739;SDS011;354;42.694;23.336;2024-01-11T10:01:45;45.47;;;34.33;;
739;SDS011;354;42.694;23.336;2024-01-11T10:04:10;49.73;;;32.70;;
739;SDS011;354;42.694;23.336;2024-01-11T10:06:37;49.20;;;36.73;;
739;SDS011;354;42.694;23.336;2024-01-11T10:09:03;50.00;;;33.20;;
739;SDS011;354;42.694;23.336;2024-01-11T10:11:28;41.33;;;30.10;;
739;SDS011;354;42.694;23.336;2024-01-11T10:13:57;48.27;;;31.67;;
739;SDS011;354;42.694;23.336;2024-01-11T10:16:23;41.27;;;31.67;;
739;SDS011;354;42.694;23.336;2024-01-11T10:18:49;47.93;;;32.07;;
739;SDS011;354;42.694;23.336;2024-01-11T10:21:14;35.90;;;26.73;;
739;SDS011;354;42.694;23.336;2024-01-11T10:23:40;35.13;;;25.53;;
739;SDS011;354;42.694;23.336;2024-01-11T10:26:05;38.30;;;29.80;;
739;SDS011;354;42.694;23.336;2024-01-11T10:28:32;36.43;;;25.43;;
739;SDS011;354;42.694;23.336;2024-01-11T10:31:01;39.50;;;29.00;;
739;SDS011;354;42.694;23.336;2024-01-11T10:33:26;36.07;;;26.47;;
739;SDS011;354;42.694;23.336;2024-01-11T10:35:51;38.27;;;22.23;;
739;SDS011;354;42.694;23.336;2024-01-11T10:38:17;45.93;;;30.00;;
739;SDS011;354;42.694;23.336;2024-01-11T10:40:43;46.90;;;30.83;;
739;SDS011;354;42.694;23.336;2024-01-11T10:43:09;47.77;;;32.07;;
739;SDS011;354;42.694;23.336;2024-01-11T10:45:36;47.57;;;33.37;;
739;SDS011;354;42.694;23.336;2024-01-11T10:48:06;52.57;;;36.17;;
739;SDS011;354;42.694;23.336;2024-01-11T10:50:35;43.77;;;31.40;;
739;SDS011;354;42.694;23.336;2024-01-11T10:53:44;48.87;;;35.27;;
739;SDS011;354;42.694;23.336;2024-01-11T10:55:50;30.90;;;22.67;;
739;SDS011;354;42.694;23.336;2024-01-11T10:58:15;33.43;;;24.70;;
739;SDS011;354;42.694;23.336;2024-01-11T11:00:41;28.30;;;19.67;;
739;SDS011;354;42.694;23.336;2024-01-11T11:03:07;34.10;;;24.20;;
739;SDS011;354;42.694;23.336;2024-01-11T11:05:34;35.20;;;26.30;;
739;SDS011;354;42.694;23.336;2024-01-11T11:08:00;32.67;;;26.03;;
739;SDS011;354;42.694;23.336;2024-01-11T11:10:26;38.53;;;26.90;;
739;SDS011;354;42.694;23.336;2024-01-11T11:12:52;31.83;;;22.70;;
739;SDS011;354;42.694;23.336;2024-01-11T11:15:19;28.93;;;21.60;;
739;SDS011;354;42.694;23.336;2024-01-11T11:17:45;36.57;;;26.40;;
739;SDS011;354;42.694;23.336;2024-01-11T11:20:11;37.13;;;27.40;;
739;SDS011;354;42.694;23.336;2024-01-11T11:22:40;26.83;;;20.60;;
739;SDS011;354;42.694;23.336;2024-01-11T11:25:09;17.47;;;15.47;;
739;SDS011;354;42.694;23.336;2024-01-11T11:27:36;29.87;;;19.53;;
739;SDS011;354;42.694;23.336;2024-01-11T11:30:02;35.40;;;25.33;;
739;SDS011;354;42.694;23.336;2024-01-11T11:32:34;28.23;;;22.20;;
739;SDS011;354;42.694;23.336;2024-01-11T11:34:59;20.20;;;17.07;;
739;SDS011;354;42.694;23.336;2024-01-11T11:37:25;19.97;;;17.43;;
739;SDS011;354;42.694;23.336;2024-01-11T11:39:50;18.30;;;16.33;;
739;SDS011;354;42.694;23.336;2024-01-11T11:42:15;22.53;;;20.13;;
739;SDS011;354;42.694;23.336;2024-01-11T11:44:50;22.33;;;19.10;;
739;SDS011;354;42.694;23.336;2024-01-11T11:47:22;16.80;;;15.10;;
739;SDS011;354;42.694;23.336;2024-01-11T11:49:57;19.07;;;15.33;;
739;SDS011;354;42.694;23.336;2024-01-11T11:52:25;19.70;;;15.17;;
739;SDS011;354;42.694;23.336;2024-01-11T11:54:51;16.50;;;14.10;;
739;SDS011;354;42.694;23.336;2024-01-11T11:57:16;20.13;;;16.70;;
739;SDS011;354;42.694;23.336;2024-01-11T11:59:42;17.07;;;14.17;;
739;SDS011;354;42.694;23.336;2024-01-11T12:02:07;15.93;;;13.87;;
739;SDS011;354;42.694;23.336;2024-01-11T12:04:38;20.50;;;18.30;;
739;SDS011;354;42.694;23.336;2024-01-11T12:07:04;22.13;;;16.13;;
739;SDS011;354;42.694;23.336;2024-01-11T12:09:29;21.13;;;16.13;;
739;SDS011;354;42.694;23.336;2024-01-11T12:11:54;16.67;;;13.70;;
739;SDS011;354;42.694;23.336;2024-01-11T12:14:19;19.87;;;16.70;;
739;SDS011;354;42.694;23.336;2024-01-11T12:16:45;19.80;;;17.00;;
739;SDS011;354;42.694;23.336;2024-01-11T12:19:10;18.17;;;14.53;;
739;SDS011;354;42.694;23.336;2024-01-11T12:21:35;15.93;;;14.23;;
739;SDS011;354;42.694;23.336;2024-01-11T12:24:02;19.57;;;17.63;;
739;SDS011;354;42.694;23.336;2024-01-11T12:26:27;18.73;;;14.47;;
739;SDS011;354;42.694;23.336;2024-01-11T12:28:52;21.27;;;15.07;;
739;SDS011;354;42.694;23.336;2024-01-11T12:31:18;18.27;;;16.07;;
739;SDS011;354;42.694;23.336;2024-01-11T12:33:44;18.10;;;14.57;;
739;SDS011;354;42.694;23.336;2024-01-11T12:36:10;20.10;;;16.27;;
739;SDS011;354;42.694;23.336;2024-01-11T12:38:35;13.73;;;12.33;;
739;SDS011;354;42.694;23.336;2024-01-11T12:41:01;15.83;;;12.87;;
739;SDS011;354;42.694;23.336;2024-01-11T12:43:26;14.47;;;11.17;;
739;SDS011;354;42.694;23.336;2024-01-11T12:45:51;13.33;;;12.00;;
739;SDS011;354;42.694;23.336;2024-01-11T12:48:17;12.57;;;11.43;;
739;SDS011;354;42.694;23.336;2024-01-11T12:50:43;12.00;;;10.73;;
739;SDS011;354;42.694;23.336;2024-01-11T12:53:09;11.57;;;9.73;;
739;SDS011;354;42.694;23.336;2024-01-11T12:55:37;11.43;;;10.40;;
739;SDS011;354;42.694;23.336;2024-01-11T12:58:08;10.97;;;9.87;;
739;SDS011;354;42.694;23.336;2024-01-11T13:00:37;9.43;;;7.33;;
739;SDS011;354;42.694;23.336;2024-01-11T13:03:02;10.00;;;9.17;;
739;SDS011;354;42.694;23.336;2024-01-11T13:05:28;13.63;;;9.33;;
739;SDS011;354;42.694;23.336;2024-01-11T13:07:53;10.53;;;9.70;;
739;SDS011;354;42.694;23.336;2024-01-11T13:10:18;11.47;;;10.47;;
739;SDS011;354;42.694;23.336;2024-01-11T13:12:44;11.63;;;10.60;;
739;SDS011;354;42.694;23.336;2024-01-11T13:15:10;9.77;;;9.03;;
739;SDS011;354;42.694;23.336;2024-01-11T13:17:35;9.40;;;8.60;;
739;SDS011;354;42.694;23.336;2024-01-11T13:20:01;9.73;;;8.93;;
739;SDS011;354;42.694;23.336;2024-01-11T13:22:26;10.57;;;9.63;;
739;SDS011;354;42.694;23.336;2024-01-11T13:24:52;12.67;;;11.33;;
739;SDS011;354;42.694;23.336;2024-01-11T13:27:17;9.80;;;8.90;;
739;SDS011;354;42.694;23.336;2024-01-11T13:29:42;10.37;;;9.43;;
739;SDS011;354;42.694;23.336;2024-01-11T13:32:08;10.27;;;9.47;;
739;SDS011;354;42.694;23.336;2024-01-11T13:34:35;9.07;;;8.43;;
739;SDS011;354;42.694;23.336;2024-01-11T13:37:01;9.50;;;8.70;;
739;SDS011;354;42.694;23.336;2024-01-11T13:39:28;9.27;;;8.37;;
739;SDS011;354;42.694;23.336;2024-01-11T13:41:53;10.53;;;8.87;;
739;SDS011;354;42.694;23.336;2024-01-11T13:44:18;9.40;;;8.50;;
739;SDS011;354;42.694;23.336;2024-01-11T13:46:43;9.60;;;8.80;;
739;SDS011;354;42.694;23.336;2024-01-11T13:49:09;10.47;;;9.57;;
739;SDS011;354;42.694;23.336;2024-01-11T13:51:34;8.80;;;8.20;;
739;SDS011;354;42.694;23.336;2024-01-11T13:54:00;9.60;;;8.73;;
739;SDS011;354;42.694;23.336;2024-01-11T13:56:25;9.87;;;9.13;;
739;SDS011;354;42.694;23.336;2024-01-11T13:58:51;9.00;;;8.20;;
739;SDS011;354;42.694;23.336;2024-01-11T14:01:16;10.87;;;9.87;;
739;SDS011;354;42.694;23.336;2024-01-11T14:03:42;11.43;;;10.40;;
739;SDS011;354;42.694;23.336;2024-01-11T14:06:07;9.63;;;8.67;;
739;SDS011;354;42.694;23.336;2024-01-11T14:08:32;10.53;;;9.63;;
739;SDS011;354;42.694;23.336;2024-01-11T14:10:57;10.30;;;9.27;;
739;SDS011;354;42.694;23.336;2024-01-11T14:13:23;10.37;;;9.37;;
739;SDS011;354;42.694;23.336;2024-01-11T14:15:48;10.47;;;9.57;;
739;SDS011;354;42.694;23.336;2024-01-11T14:18:15;12.20;;;10.80;;
739;SDS011;354;42.694;23.336;2024-01-11T14:20:41;12.17;;;10.93;;
739;SDS011;354;42.694;23.336;2024-01-11T14:23:06;10.80;;;9.90;;
739;SDS011;354;42.694;23.336;2024-01-11T14:25:31;15.53;;;12.83;;
739;SDS011;354;42.694;23.336;2024-01-11T14:27:56;10.57;;;8.00;;
739;SDS011;354;42.694;23.336;2024-01-11T14:30:22;11.07;;;9.97;;
739;SDS011;354;42.694;23.336;2024-01-11T14:32:47;11.43;;;10.33;;
739;SDS011;354;42.694;23.336;2024-01-11T14:35:14;9.67;;;8.77;;
739;SDS011;354;42.694;23.336;2024-01-11T14:37:39;13.47;;;9.77;;
739;SDS011;354;42.694;23.336;2024-01-11T14:40:05;17.43;;;7.33;;
739;SDS011;354;42.694;23.336;2024-01-11T14:42:30;12.40;;;11.10;;
739;SDS011;354;42.694;23.336;2024-01-11T14:44:56;12.33;;;11.23;;
739;SDS011;354;42.694;23.336;2024-01-11T14:47:21;11.50;;;10.37;;
739;SDS011;354;42.694;23.336;2024-01-11T14:49:47;8.63;;;8.03;;
739;SDS011;354;42.694;23.336;2024-01-11T14:52:12;12.87;;;11.43;;